sensor_id;sensor_type;location;lat;lon;timestamp;pressure;altitude;pressure_sealevel;temperature;humidity
50105;BME280;47690;39.202;-77.198;2023-05-23T00:01:26;100618.69;;;49.41;8.29
50105;BME280;47690;39.202;-77.198;2023-05-23T00:03:54;100626.31;;;49.39;8.19
50105;BME280;47690;39.202;-77.198;2023-05-23T00:06:24;100630.72;;;49.34;7.66
50105;BME280;47690;39.202;-77.198;2023-05-23T00:08:54;100633.19;;;49.26;7.91
50105;BME280;47690;39.202;-77.198;2023-05-23T00:11:24;100626.34;;;49.23;8.45
50105;BME280;47690;39.202;-77.198;2023-05-23T00:13:54;100638.94;;;49.40;8.46
50105;BME280;47690;39.202;-77.198;2023-05-23T00:16:24;100635.34;;;49.44;8.49
50105;BME280;47690;39.202;-77.198;2023-05-23T00:18:54;100639.47;;;49.42;7.93
50105;BME280;47690;39.202;-77.198;2023-05-23T00:21:25;100638.38;;;49.43;8.13
50105;BME280;47690;39.202;-77.198;2023-05-23T00:23:55;100632.91;;;49.32;7.87
50105;BME280;47690;39.202;-77.198;2023-05-23T00:26:24;100638.66;;;49.26;8.14
50105;BME280;47690;39.202;-77.198;2023-05-23T00:28:53;100638.66;;;49.15;7.98
50105;BME280;47690;39.202;-77.198;2023-05-23T00:31:23;100641.63;;;49.08;8.01
50105;BME280;47690;39.202;-77.198;2023-05-23T00:33:57;100635.34;;;48.98;8.76
50105;BME280;47690;39.202;-77.198;2023-05-23T00:36:26;100645.75;;;49.01;8.16
50105;BME280;47690;39.202;-77.198;2023-05-23T00:39:02;100644.13;;;48.94;8.52
50105;BME280;47690;39.202;-77.198;2023-05-23T00:41:50;100645.47;;;48.87;8.55
50105;BME280;47690;39.202;-77.198;2023-05-23T00:44:26;100647.09;;;48.83;8.86
50105;BME280;47690;39.202;-77.198;2023-05-23T00:47:02;100642.16;;;48.69;8.39
50105;BME280;47690;39.202;-77.198;2023-05-23T00:49:32;100652.22;;;48.53;8.33
50105;BME280;47690;39.202;-77.198;2023-05-23T00:52:02;100659.81;;;48.46;8.45
50105;BME280;47690;39.202;-77.198;2023-05-23T00:54:32;100659.81;;;48.40;8.40
50105;BME280;47690;39.202;-77.198;2023-05-23T00:57:02;100663.06;;;48.37;8.85
50105;BME280;47690;39.202;-77.198;2023-05-23T00:59:31;100660.91;;;48.39;8.52
50105;BME280;47690;39.202;-77.198;2023-05-23T01:02:01;100665.25;;;48.30;8.59
50105;BME280;47690;39.202;-77.198;2023-05-23T01:04:31;100670.94;;;48.18;8.75
50105;BME280;47690;39.202;-77.198;2023-05-23T01:07:02;100670.88;;;48.08;8.99
50105;BME280;47690;39.202;-77.198;2023-05-23T01:09:31;100667.91;;;48.15;9.24
50105;BME280;47690;39.202;-77.198;2023-05-23T01:12:19;100674.63;;;48.50;8.75
50105;BME280;47690;39.202;-77.198;2023-05-23T01:15:05;100680.81;;;48.30;8.86
50105;BME280;47690;39.202;-77.198;2023-05-23T01:18:00;100680.41;;;48.59;9.01
50105;BME280;47690;39.202;-77.198;2023-05-23T01:20:40;100697.22;;;48.40;8.72
50105;BME280;47690;39.202;-77.198;2023-05-23T01:28:32;100704.44;;;48.08;9.24
50105;BME280;47690;39.202;-77.198;2023-05-23T01:31:07;100715.56;;;47.96;9.11
50105;BME280;47690;39.202;-77.198;2023-05-23T01:33:44;100717.47;;;47.91;9.15
50105;BME280;47690;39.202;-77.198;2023-05-23T01:36:19;100723.13;;;47.79;9.00
50105;BME280;47690;39.202;-77.198;2023-05-23T01:38:52;100728.69;;;47.62;9.03
50105;BME280;47690;39.202;-77.198;2023-05-23T01:41:22;100726.16;;;47.50;9.44
50105;BME280;47690;39.202;-77.198;2023-05-23T01:43:55;100733.84;;;47.58;9.09
50105;BME280;47690;39.202;-77.198;2023-05-23T01:46:27;100723.78;;;47.58;9.17
50105;BME280;47690;39.202;-77.198;2023-05-23T01:49:00;100730.28;;;47.52;9.70
50105;BME280;47690;39.202;-77.198;2023-05-23T01:51:32;100735.63;;;47.42;9.27
50105;BME280;47690;39.202;-77.198;2023-05-23T01:54:05;100741.78;;;47.32;9.17
50105;BME280;47690;39.202;-77.198;2023-05-23T01:56:36;100741.44;;;47.23;9.60
50105;BME280;47690;39.202;-77.198;2023-05-23T01:59:05;100746.28;;;47.16;9.18
50105;BME280;47690;39.202;-77.198;2023-05-23T02:01:36;100743.56;;;47.16;9.55
50105;BME280;47690;39.202;-77.198;2023-05-23T02:04:08;100748.97;;;47.11;9.16
50105;BME280;47690;39.202;-77.198;2023-05-23T02:06:37;100754.34;;;47.05;9.25
50105;BME280;47690;39.202;-77.198;2023-05-23T02:09:07;100753.78;;;47.03;9.31
50105;BME280;47690;39.202;-77.198;2023-05-23T02:11:38;100756.69;;;46.97;9.57
50105;BME280;47690;39.202;-77.198;2023-05-23T02:14:09;100757.66;;;46.85;9.35
50105;BME280;47690;39.202;-77.198;2023-05-23T02:16:43;100759.59;;;46.90;9.74
50105;BME280;47690;39.202;-77.198;2023-05-23T02:19:18;100763.66;;;46.87;9.68
50105;BME280;47690;39.202;-77.198;2023-05-23T02:21:48;100772.38;;;46.84;9.75
50105;BME280;47690;39.202;-77.198;2023-05-23T02:24:20;100771.69;;;46.55;9.90
50105;BME280;47690;39.202;-77.198;2023-05-23T02:26:49;100768.97;;;46.55;9.44
50105;BME280;47690;39.202;-77.198;2023-05-23T02:29:22;100774.13;;;46.51;10.00
50105;BME280;47690;39.202;-77.198;2023-05-23T02:31:52;100773.72;;;46.42;9.86
50105;BME280;47690;39.202;-77.198;2023-05-23T02:34:22;100779.03;;;46.32;9.56
50105;BME280;47690;39.202;-77.198;2023-05-23T02:36:52;100772.00;;;46.36;9.57
50105;BME280;47690;39.202;-77.198;2023-05-23T02:39:23;100769.22;;;46.31;9.73
50105;BME280;47690;39.202;-77.198;2023-05-23T02:41:53;100776.56;;;46.13;9.87
50105;BME280;47690;39.202;-77.198;2023-05-23T02:44:25;100772.34;;;46.05;9.95
50105;BME280;47690;39.202;-77.198;2023-05-23T02:46:55;100778.88;;;46.04;9.81
50105;BME280;47690;39.202;-77.198;2023-05-23T02:49:25;100778.72;;;45.94;10.38
50105;BME280;47690;39.202;-77.198;2023-05-23T02:51:55;100777.56;;;45.90;9.94
50105;BME280;47690;39.202;-77.198;2023-05-23T02:54:25;100767.84;;;45.94;10.21
50105;BME280;47690;39.202;-77.198;2023-05-23T02:56:56;100769.25;;;45.96;9.82
50105;BME280;47690;39.202;-77.198;2023-05-23T02:59:28;100763.06;;;46.01;9.82
50105;BME280;47690;39.202;-77.198;2023-05-23T03:01:59;100771.06;;;45.91;10.17
50105;BME280;47690;39.202;-77.198;2023-05-23T03:04:29;100769.34;;;45.85;9.78
50105;BME280;47690;39.202;-77.198;2023-05-23T03:07:03;100770.56;;;45.94;9.70
50105;BME280;47690;39.202;-77.198;2023-05-23T03:09:43;100778.47;;;45.78;9.84
50105;BME280;47690;39.202;-77.198;2023-05-23T03:12:17;100777.00;;;45.88;9.91
50105;BME280;47690;39.202;-77.198;2023-05-23T03:14:48;100774.84;;;45.90;10.30
50105;BME280;47690;39.202;-77.198;2023-05-23T03:17:18;100774.91;;;45.78;10.19
50105;BME280;47690;39.202;-77.198;2023-05-23T03:19:48;100775.75;;;45.78;10.42
50105;BME280;47690;39.202;-77.198;2023-05-23T03:22:20;100786.78;;;45.72;10.06
50105;BME280;47690;39.202;-77.198;2023-05-23T03:24:49;100789.91;;;45.63;9.98
50105;BME280;47690;39.202;-77.198;2023-05-23T03:27:20;100791.22;;;45.61;9.93
50105;BME280;47690;39.202;-77.198;2023-05-23T03:29:50;100785.88;;;45.66;10.39
50105;BME280;47690;39.202;-77.198;2023-05-23T03:32:20;100788.59;;;45.66;9.77
50105;BME280;47690;39.202;-77.198;2023-05-23T03:34:51;100784.78;;;45.67;9.86
50105;BME280;47690;39.202;-77.198;2023-05-23T03:37:21;100782.31;;;45.65;10.34
50105;BME280;47690;39.202;-77.198;2023-05-23T03:39:52;100785.13;;;45.70;10.14
50105;BME280;47690;39.202;-77.198;2023-05-23T03:42:22;100792.53;;;45.75;10.13
50105;BME280;47690;39.202;-77.198;2023-05-23T03:44:55;100792.22;;;45.72;9.93
50105;BME280;47690;39.202;-77.198;2023-05-23T03:47:24;100797.97;;;45.58;9.84
50105;BME280;47690;39.202;-77.198;2023-05-23T03:49:56;100792.13;;;45.49;9.79
50105;BME280;47690;39.202;-77.198;2023-05-23T03:52:28;100799.25;;;45.38;10.49
50105;BME280;47690;39.202;-77.198;2023-05-23T03:54:59;100798.97;;;45.40;10.30
50105;BME280;47690;39.202;-77.198;2023-05-23T03:57:29;100793.59;;;45.28;10.46
50105;BME280;47690;39.202;-77.198;2023-05-23T04:00:03;100795.41;;;45.22;10.59
50105;BME280;47690;39.202;-77.198;2023-05-23T04:02:45;100801.75;;;45.28;10.19
50105;BME280;47690;39.202;-77.198;2023-05-23T04:05:21;100804.41;;;45.23;9.85
50105;BME280;47690;39.202;-77.198;2023-05-23T04:07:52;100807.94;;;45.23;10.11
50105;BME280;47690;39.202;-77.198;2023-05-23T04:10:22;100810.81;;;45.16;10.59
50105;BME280;47690;39.202;-77.198;2023-05-23T04:12:52;100807.59;;;45.20;10.49
50105;BME280;47690;39.202;-77.198;2023-05-23T04:15:25;100807.63;;;45.08;10.18
50105;BME280;47690;39.202;-77.198;2023-05-23T04:17:58;100813.63;;;45.10;10.40
50105;BME280;47690;39.202;-77.198;2023-05-23T04:20:30;100811.31;;;45.01;10.88
50105;BME280;47690;39.202;-77.198;2023-05-23T04:23:00;100810.84;;;44.93;10.96
50105;BME280;47690;39.202;-77.198;2023-05-23T04:25:34;100824.09;;;44.89;10.71
50105;BME280;47690;39.202;-77.198;2023-05-23T04:28:16;100814.25;;;45.00;10.90
50105;BME280;47690;39.202;-77.198;2023-05-23T04:30:45;100818.66;;;44.89;10.19
50105;BME280;47690;39.202;-77.198;2023-05-23T04:33:21;100819.13;;;44.86;10.47
50105;BME280;47690;39.202;-77.198;2023-05-23T04:35:51;100822.78;;;44.80;10.90
50105;BME280;47690;39.202;-77.198;2023-05-23T04:38:20;100826.38;;;44.68;10.39
50105;BME280;47690;39.202;-77.198;2023-05-23T04:40:51;100822.81;;;44.68;10.39
50105;BME280;47690;39.202;-77.198;2023-05-23T04:43:46;100823.59;;;44.92;10.44
50105;BME280;47690;39.202;-77.198;2023-05-23T04:47:11;100825.94;;;45.12;10.38
50105;BME280;47690;39.202;-77.198;2023-05-23T04:50:03;100834.25;;;44.94;10.20
50105;BME280;47690;39.202;-77.198;2023-05-23T04:52:35;100836.63;;;44.66;10.91
50105;BME280;47690;39.202;-77.198;2023-05-23T04:55:07;100836.28;;;44.62;10.97
50105;BME280;47690;39.202;-77.198;2023-05-23T04:57:39;100837.44;;;44.55;10.89
50105;BME280;47690;39.202;-77.198;2023-05-23T05:00:08;100848.91;;;44.45;11.00
50105;BME280;47690;39.202;-77.198;2023-05-23T05:02:42;100854.09;;;44.46;10.95
50105;BME280;47690;39.202;-77.198;2023-05-23T05:05:16;100845.38;;;44.56;11.21
50105;BME280;47690;39.202;-77.198;2023-05-23T05:07:47;100848.19;;;44.49;10.83
50105;BME280;47690;39.202;-77.198;2023-05-23T05:10:17;100850.81;;;44.44;11.09
50105;BME280;47690;39.202;-77.198;2023-05-23T05:12:48;100848.44;;;44.48;10.61
50105;BME280;47690;39.202;-77.198;2023-05-23T05:15:19;100858.34;;;44.42;10.59
50105;BME280;47690;39.202;-77.198;2023-05-23T05:17:53;100857.16;;;44.38;11.24
50105;BME280;47690;39.202;-77.198;2023-05-23T05:20:24;100861.19;;;44.24;11.27
50105;BME280;47690;39.202;-77.198;2023-05-23T05:22:56;100861.19;;;44.24;11.05
50105;BME280;47690;39.202;-77.198;2023-05-23T05:25:28;100862.25;;;44.23;11.14
50105;BME280;47690;39.202;-77.198;2023-05-23T05:28:04;100851.59;;;44.21;10.66
50105;BME280;47690;39.202;-77.198;2023-05-23T05:30:47;100854.69;;;44.25;11.03
50105;BME280;47690;39.202;-77.198;2023-05-23T05:33:27;100852.50;;;44.15;11.21
50105;BME280;47690;39.202;-77.198;2023-05-23T05:36:07;100851.09;;;44.12;10.89
50105;BME280;47690;39.202;-77.198;2023-05-23T05:38:37;100852.63;;;44.08;10.80
50105;BME280;47690;39.202;-77.198;2023-05-23T05:41:06;100848.13;;;44.02;11.34
50105;BME280;47690;39.202;-77.198;2023-05-23T05:43:42;100854.00;;;43.99;11.37
50105;BME280;47690;39.202;-77.198;2023-05-23T05:46:16;100852.94;;;44.00;10.84
50105;BME280;47690;39.202;-77.198;2023-05-23T05:48:48;100846.00;;;44.04;10.81
50105;BME280;47690;39.202;-77.198;2023-05-23T05:51:19;100854.72;;;44.06;10.60
50105;BME280;47690;39.202;-77.198;2023-05-23T05:53:48;100842.69;;;44.02;10.82
50105;BME280;47690;39.202;-77.198;2023-05-23T05:56:23;100843.88;;;44.06;11.08
50105;BME280;47690;39.202;-77.198;2023-05-23T05:58:52;100853.91;;;44.05;11.31
50105;BME280;47690;39.202;-77.198;2023-05-23T06:01:24;100846.22;;;44.02;10.93
50105;BME280;47690;39.202;-77.198;2023-05-23T06:03:55;100846.47;;;44.01;11.24
50105;BME280;47690;39.202;-77.198;2023-05-23T06:06:29;100845.56;;;44.19;11.10
50105;BME280;47690;39.202;-77.198;2023-05-23T06:09:06;100843.78;;;44.13;10.92
50105;BME280;47690;39.202;-77.198;2023-05-23T06:11:36;100837.25;;;45.21;10.57
50105;BME280;47690;39.202;-77.198;2023-05-23T06:14:16;100840.19;;;45.61;10.35
50105;BME280;47690;39.202;-77.198;2023-05-23T06:16:48;100843.81;;;45.08;10.27
50105;BME280;47690;39.202;-77.198;2023-05-23T06:19:21;100851.00;;;44.19;10.91
50105;BME280;47690;39.202;-77.198;2023-05-23T06:21:55;100859.44;;;44.11;11.48
50105;BME280;47690;39.202;-77.198;2023-05-23T06:24:24;100858.13;;;43.89;10.64
50105;BME280;47690;39.202;-77.198;2023-05-23T06:26:54;100852.44;;;43.79;10.95
50105;BME280;47690;39.202;-77.198;2023-05-23T06:29:24;100850.75;;;43.78;11.43
50105;BME280;47690;39.202;-77.198;2023-05-23T06:31:55;100852.84;;;43.76;11.31
50105;BME280;47690;39.202;-77.198;2023-05-23T06:34:25;100866.91;;;43.73;11.08
50105;BME280;47690;39.202;-77.198;2023-05-23T06:36:56;100858.06;;;43.77;10.79
50105;BME280;47690;39.202;-77.198;2023-05-23T06:39:25;100852.44;;;43.79;11.02
50105;BME280;47690;39.202;-77.198;2023-05-23T06:41:55;100850.41;;;43.74;11.31
50105;BME280;47690;39.202;-77.198;2023-05-23T06:44:28;100858.91;;;43.78;11.17
50105;BME280;47690;39.202;-77.198;2023-05-23T06:47:03;100853.66;;;43.64;11.24
50105;BME280;47690;39.202;-77.198;2023-05-23T06:49:34;100845.84;;;43.56;11.61
50105;BME280;47690;39.202;-77.198;2023-05-23T06:52:03;100850.19;;;43.45;11.01
50105;BME280;47690;39.202;-77.198;2023-05-23T06:54:33;100853.31;;;43.42;11.17
50105;BME280;47690;39.202;-77.198;2023-05-23T06:57:05;100862.31;;;43.43;11.14
50105;BME280;47690;39.202;-77.198;2023-05-23T06:59:36;100863.13;;;43.43;11.30
50105;BME280;47690;39.202;-77.198;2023-05-23T07:02:07;100865.22;;;43.41;11.03
50105;BME280;47690;39.202;-77.198;2023-05-23T07:04:37;100862.53;;;43.41;11.32
50105;BME280;47690;39.202;-77.198;2023-05-23T07:07:20;100867.06;;;43.59;11.39
50105;BME280;47690;39.202;-77.198;2023-05-23T07:09:49;100864.75;;;43.44;10.94
50105;BME280;47690;39.202;-77.198;2023-05-23T07:12:20;100869.22;;;43.38;11.03
50105;BME280;47690;39.202;-77.198;2023-05-23T07:14:52;100867.25;;;43.46;11.25
50105;BME280;47690;39.202;-77.198;2023-05-23T07:17:25;100868.69;;;43.48;11.32
50105;BME280;47690;39.202;-77.198;2023-05-23T07:19:58;100865.75;;;43.50;11.40
50105;BME280;47690;39.202;-77.198;2023-05-23T07:22:31;100870.16;;;43.63;11.24
50105;BME280;47690;39.202;-77.198;2023-05-23T07:25:05;100868.19;;;43.70;11.32
50105;BME280;47690;39.202;-77.198;2023-05-23T07:27:35;100873.19;;;43.54;11.16
50105;BME280;47690;39.202;-77.198;2023-05-23T07:30:07;100866.72;;;43.56;11.16
50105;BME280;47690;39.202;-77.198;2023-05-23T07:32:38;100874.25;;;43.53;11.17
50105;BME280;47690;39.202;-77.198;2023-05-23T07:35:15;100878.16;;;43.58;11.15
50105;BME280;47690;39.202;-77.198;2023-05-23T07:37:47;100884.09;;;43.66;10.87
50105;BME280;47690;39.202;-77.198;2023-05-23T07:40:19;100881.91;;;43.57;11.31
50105;BME280;47690;39.202;-77.198;2023-05-23T07:42:48;100878.16;;;43.58;11.06
50105;BME280;47690;39.202;-77.198;2023-05-23T07:45:17;100878.25;;;43.51;11.19
50105;BME280;47690;39.202;-77.198;2023-05-23T07:47:48;100877.72;;;43.42;11.17
50105;BME280;47690;39.202;-77.198;2023-05-23T07:50:19;100882.09;;;43.43;11.07
50105;BME280;47690;39.202;-77.198;2023-05-23T07:52:51;100874.66;;;43.38;11.14
50105;BME280;47690;39.202;-77.198;2023-05-23T07:55:25;100880.13;;;43.32;10.97
50105;BME280;47690;39.202;-77.198;2023-05-23T07:57:55;100882.09;;;43.43;11.21
50105;BME280;47690;39.202;-77.198;2023-05-23T08:00:27;100878.19;;;43.39;11.02
50105;BME280;47690;39.202;-77.198;2023-05-23T08:03:05;100878.47;;;43.31;11.22
50105;BME280;47690;39.202;-77.198;2023-05-23T08:05:51;100881.38;;;44.87;10.15
50105;BME280;47690;39.202;-77.198;2023-05-23T08:08:21;100884.78;;;43.62;10.89
50105;BME280;47690;39.202;-77.198;2023-05-23T08:11:06;100882.34;;;43.42;10.64
50105;BME280;47690;39.202;-77.198;2023-05-23T08:13:52;100890.06;;;43.19;11.40
50105;BME280;47690;39.202;-77.198;2023-05-23T08:16:47;100887.06;;;43.09;10.99
50105;BME280;47690;39.202;-77.198;2023-05-23T08:19:25;100886.16;;;42.96;11.09
50105;BME280;47690;39.202;-77.198;2023-05-23T08:21:57;100887.50;;;43.06;11.37
50105;BME280;47690;39.202;-77.198;2023-05-23T08:24:27;100889.47;;;42.98;11.39
50105;BME280;47690;39.202;-77.198;2023-05-23T08:26:59;100890.41;;;42.85;11.24
50105;BME280;47690;39.202;-77.198;2023-05-23T08:29:31;100890.22;;;42.80;11.20
50105;BME280;47690;39.202;-77.198;2023-05-23T08:32:05;100898.16;;;42.82;11.21
50105;BME280;47690;39.202;-77.198;2023-05-23T08:34:46;100898.22;;;42.94;11.15
50105;BME280;47690;39.202;-77.198;2023-05-23T08:37:16;100895.59;;;42.87;11.28
50105;BME280;47690;39.202;-77.198;2023-05-23T08:39:46;100902.59;;;42.76;11.33
50105;BME280;47690;39.202;-77.198;2023-05-23T08:42:36;100899.41;;;42.79;10.88
50105;BME280;47690;39.202;-77.198;2023-05-23T08:45:17;100896.31;;;42.76;11.27
50105;BME280;47690;39.202;-77.198;2023-05-23T08:47:51;100899.09;;;42.69;11.32
50105;BME280;47690;39.202;-77.198;2023-05-23T08:50:27;100898.34;;;42.80;11.35
50105;BME280;47690;39.202;-77.198;2023-05-23T08:53:04;100898.22;;;42.75;11.76
50105;BME280;47690;39.202;-77.198;2023-05-23T08:55:40;100898.25;;;42.68;11.16
50105;BME280;47690;39.202;-77.198;2023-05-23T08:58:17;100910.84;;;42.81;11.32
50105;BME280;47690;39.202;-77.198;2023-05-23T09:00:59;100910.34;;;42.91;11.24
50105;BME280;47690;39.202;-77.198;2023-05-23T09:03:29;100906.38;;;42.68;11.59
50105;BME280;47690;39.202;-77.198;2023-05-23T09:06:19;100914.59;;;42.80;11.31
50105;BME280;47690;39.202;-77.198;2023-05-23T09:08:50;100913.91;;;42.66;11.23
50105;BME280;47690;39.202;-77.198;2023-05-23T09:11:21;100917.28;;;42.62;11.39
50105;BME280;47690;39.202;-77.198;2023-05-23T09:14:00;100915.84;;;42.59;11.49
50105;BME280;47690;39.202;-77.198;2023-05-23T09:16:45;100920.03;;;42.55;11.64
50105;BME280;47690;39.202;-77.198;2023-05-23T09:19:24;100927.34;;;42.54;11.34
50105;BME280;47690;39.202;-77.198;2023-05-23T09:22:05;100924.09;;;42.71;11.40
50105;BME280;47690;39.202;-77.198;2023-05-23T09:25:01;100929.13;;;42.67;11.47
50105;BME280;47690;39.202;-77.198;2023-05-23T09:27:52;100930.56;;;42.89;11.46
50105;BME280;47690;39.202;-77.198;2023-05-23T09:30:27;100939.06;;;43.18;10.87
50105;BME280;47690;39.202;-77.198;2023-05-23T09:33:00;100945.56;;;42.91;11.00
50105;BME280;47690;39.202;-77.198;2023-05-23T09:35:48;100937.19;;;43.18;11.15
50105;BME280;47690;39.202;-77.198;2023-05-23T09:38:27;100939.50;;;42.96;11.11
50105;BME280;47690;39.202;-77.198;2023-05-23T09:41:03;100937.88;;;42.88;11.18
50105;BME280;47690;39.202;-77.198;2023-05-23T09:43:52;100936.44;;;43.11;11.05
50105;BME280;47690;39.202;-77.198;2023-05-23T09:46:36;100936.22;;;42.87;11.32
50105;BME280;47690;39.202;-77.198;2023-05-23T09:49:28;100939.44;;;43.03;11.10
50105;BME280;47690;39.202;-77.198;2023-05-23T09:52:00;100942.75;;;42.79;11.08
50105;BME280;47690;39.202;-77.198;2023-05-23T09:54:36;100946.41;;;42.92;11.15
50105;BME280;47690;39.202;-77.198;2023-05-23T09:57:10;100941.56;;;42.94;11.33
50105;BME280;47690;39.202;-77.198;2023-05-23T10:00:25;100945.41;;;43.30;10.97
50105;BME280;47690;39.202;-77.198;2023-05-23T10:03:52;100950.81;;;43.30;11.33
50105;BME280;47690;39.202;-77.198;2023-05-23T10:08:29;100964.53;;;43.35;10.90
50105;BME280;47690;39.202;-77.198;2023-05-23T10:22:05;100973.28;;;43.19;11.32
50105;BME280;47690;39.202;-77.198;2023-05-23T10:26:08;100980.56;;;43.18;10.92
50105;BME280;47690;39.202;-77.198;2023-05-23T10:30:16;100988.84;;;43.23;11.10
50105;BME280;47690;39.202;-77.198;2023-05-23T10:38:35;100992.13;;;43.07;11.33
50105;BME280;47690;39.202;-77.198;2023-05-23T10:41:26;100991.97;;;42.76;10.96
50105;BME280;47690;39.202;-77.198;2023-05-23T10:44:27;100997.47;;;42.63;11.25
50105;BME280;47690;39.202;-77.198;2023-05-23T10:47:28;101002.09;;;42.55;11.49
50105;BME280;47690;39.202;-77.198;2023-05-23T10:49:57;101010.00;;;42.18;11.59
50105;BME280;47690;39.202;-77.198;2023-05-23T10:52:42;101007.06;;;42.26;12.00
50105;BME280;47690;39.202;-77.198;2023-05-23T10:55:20;101006.91;;;42.08;11.59
50105;BME280;47690;39.202;-77.198;2023-05-23T10:58:15;101008.06;;;42.32;11.79
50105;BME280;47690;39.202;-77.198;2023-05-23T11:00:55;101022.44;;;42.26;11.94
50105;BME280;47690;39.202;-77.198;2023-05-23T11:06:41;101028.53;;;42.60;11.85
50105;BME280;47690;39.202;-77.198;2023-05-23T11:09:19;101027.97;;;42.44;11.45
50105;BME280;47690;39.202;-77.198;2023-05-23T11:12:05;101021.38;;;42.72;12.05
50105;BME280;47690;39.202;-77.198;2023-05-23T11:17:52;101023.78;;;43.57;11.57
50105;BME280;47690;39.202;-77.198;2023-05-23T11:20:24;101029.28;;;44.37;11.14
50105;BME280;47690;39.202;-77.198;2023-05-23T11:23:06;101030.94;;;44.38;10.68
50105;BME280;47690;39.202;-77.198;2023-05-23T11:25:48;101029.94;;;43.46;11.49
50105;BME280;47690;39.202;-77.198;2023-05-23T11:28:22;101035.81;;;43.43;11.75
50105;BME280;47690;39.202;-77.198;2023-05-23T11:30:53;101036.50;;;43.31;11.73
50105;BME280;47690;39.202;-77.198;2023-05-23T11:33:35;101037.09;;;43.40;11.99
50105;BME280;47690;39.202;-77.198;2023-05-23T11:36:27;101040.63;;;43.59;12.01
50105;BME280;47690;39.202;-77.198;2023-05-23T11:39:07;101037.63;;;43.67;11.60
50105;BME280;47690;39.202;-77.198;2023-05-23T11:41:40;101036.13;;;43.72;11.84
50105;BME280;47690;39.202;-77.198;2023-05-23T11:44:17;101042.03;;;43.87;11.14
50105;BME280;47690;39.202;-77.198;2023-05-23T11:47:03;101046.72;;;44.11;11.66
50105;BME280;47690;39.202;-77.198;2023-05-23T11:49:41;101041.53;;;44.09;11.51
50105;BME280;47690;39.202;-77.198;2023-05-23T11:52:20;101044.63;;;44.13;12.05
50105;BME280;47690;39.202;-77.198;2023-05-23T11:55:10;101045.28;;;44.27;12.11
50105;BME280;47690;39.202;-77.198;2023-05-23T11:57:55;101051.03;;;44.49;11.59
50105;BME280;47690;39.202;-77.198;2023-05-23T12:01:11;101048.38;;;45.04;11.75
50105;BME280;47690;39.202;-77.198;2023-05-23T12:05:08;101050.81;;;45.29;11.27
50105;BME280;47690;39.202;-77.198;2023-05-23T12:08:46;101051.44;;;45.31;11.80
50105;BME280;47690;39.202;-77.198;2023-05-23T12:12:37;101060.88;;;45.52;11.37
50105;BME280;47690;39.202;-77.198;2023-05-23T12:16:07;101054.50;;;45.59;11.33
50105;BME280;47690;39.202;-77.198;2023-05-23T12:20:07;101052.34;;;45.85;11.61
50105;BME280;47690;39.202;-77.198;2023-05-23T12:28:37;101067.34;;;45.87;11.29
50105;BME280;47690;39.202;-77.198;2023-05-23T12:32:55;101057.47;;;45.98;11.47
50105;BME280;47690;39.202;-77.198;2023-05-23T12:37:15;101060.09;;;46.34;11.49
50105;BME280;47690;39.202;-77.198;2023-05-23T12:40:18;101075.50;;;45.87;11.53
50105;BME280;47690;39.202;-77.198;2023-05-23T12:44:29;101062.91;;;45.98;11.42
50105;BME280;47690;39.202;-77.198;2023-05-23T12:48:54;101065.44;;;46.29;11.83
50105;BME280;47690;39.202;-77.198;2023-05-23T12:53:18;101061.09;;;46.16;11.42
50105;BME280;47690;39.202;-77.198;2023-05-23T12:57:45;101054.75;;;46.56;11.37
50105;BME280;47690;39.202;-77.198;2023-05-23T13:00:57;101060.91;;;46.63;12.04
50105;BME280;47690;39.202;-77.198;2023-05-23T13:05:04;101062.06;;;47.02;11.03
50105;BME280;47690;39.202;-77.198;2023-05-23T13:09:34;101058.34;;;47.08;11.36
50105;BME280;47690;39.202;-77.198;2023-05-23T13:14:20;101058.19;;;47.15;11.44
50105;BME280;47690;39.202;-77.198;2023-05-23T13:18:41;101066.28;;;47.10;11.17
50105;BME280;47690;39.202;-77.198;2023-05-23T13:23:30;101059.81;;;47.33;11.02
50105;BME280;47690;39.202;-77.198;2023-05-23T13:28:20;101057.47;;;47.25;11.34
50105;BME280;47690;39.202;-77.198;2023-05-23T13:37:10;101071.38;;;47.63;10.82
50105;BME280;47690;39.202;-77.198;2023-05-23T13:41:16;101057.16;;;47.38;11.70
50105;BME280;47690;39.202;-77.198;2023-05-23T13:46:04;101057.19;;;47.83;11.32
50105;BME280;47690;39.202;-77.198;2023-05-23T13:49:57;101049.28;;;47.81;11.27
50105;BME280;47690;39.202;-77.198;2023-05-23T13:52:39;101058.97;;;47.50;11.37
50105;BME280;47690;39.202;-77.198;2023-05-23T13:55:21;101055.28;;;47.39;11.30
50105;BME280;47690;39.202;-77.198;2023-05-23T13:57:56;101056.00;;;47.34;11.55
50105;BME280;47690;39.202;-77.198;2023-05-23T14:00:27;101059.50;;;47.29;11.25
50105;BME280;47690;39.202;-77.198;2023-05-23T14:03:00;101057.56;;;47.30;11.67
50105;BME280;47690;39.202;-77.198;2023-05-23T14:05:32;101060.53;;;47.28;11.26
50105;BME280;47690;39.202;-77.198;2023-05-23T14:08:17;101059.41;;;47.41;11.39
50105;BME280;47690;39.202;-77.198;2023-05-23T14:10:55;101054.50;;;47.26;11.56
50105;BME280;47690;39.202;-77.198;2023-05-23T14:13:32;101051.13;;;47.36;11.48
50105;BME280;47690;39.202;-77.198;2023-05-23T14:16:04;101054.91;;;47.35;11.42
50105;BME280;47690;39.202;-77.198;2023-05-23T14:18:41;101057.16;;;47.38;11.19
50105;BME280;47690;39.202;-77.198;2023-05-23T14:21:16;101049.69;;;47.51;11.18
50105;BME280;47690;39.202;-77.198;2023-05-23T14:23:52;101056.88;;;47.57;11.05
50105;BME280;47690;39.202;-77.198;2023-05-23T14:26:28;101055.34;;;47.66;10.95
50105;BME280;47690;39.202;-77.198;2023-05-23T14:29:00;101058.59;;;47.63;11.06
50105;BME280;47690;39.202;-77.198;2023-05-23T14:31:31;101061.50;;;47.56;11.30
50105;BME280;47690;39.202;-77.198;2023-05-23T14:34:03;101059.84;;;47.55;11.39